Time;durP1;ratioP1;P1;durP2;ratioP2;P2;SDS_P1;SDS_P2;PMS_P1;PMS_P2;Temp;Humidity;BMP_temperature;BMP_pressure;BME280_temperature;BME280_humidity;BME280_pressure;Samples;Min_cycle;Max_cycle;Signal;HPM_P1;HPM_P2
2023/11/27 00:01:52;;;;;;;10.55;5.65;;;5.70;99.90;;;;;;5027875;28;20056;-65
2023/11/27 00:04:21;;;;;;;9.48;4.80;;;5.80;99.90;;;;;;4994453;28;20136;-64
2023/11/27 00:06:46;;;;;;;13.98;5.00;;;5.70;99.90;;;;;;5028801;28;20115;-65
2023/11/27 00:09:12;;;;;;;9.90;5.00;;;5.70;99.90;;;;;;5028426;28;20479;-83
2023/11/27 00:11:38;;;;;;;10.38;4.47;;;5.80;99.90;;;;;;5010228;28;20099;-79
2023/11/27 00:14:08;;;;;;;11.68;5.20;;;5.70;99.90;;;;;;5029160;28;20054;-65
2023/11/27 00:16:34;;;;;;;14.67;5.40;;;5.80;99.90;;;;;;5010120;28;20053;-84
2023/11/27 00:18:59;;;;;;;9.98;4.75;;;5.70;99.90;;;;;;5028685;28;20045;-64
2023/11/27 00:21:25;;;;;;;12.07;5.35;;;5.70;99.90;;;;;;5026994;28;20034;-65
2023/11/27 00:23:51;;;;;;;11.93;5.53;;;5.60;99.90;;;;;;5028500;28;20037;-84
2023/11/27 00:26:16;;;;;;;14.30;5.53;;;5.60;99.90;;;;;;5027782;28;20042;-64
2023/11/27 00:28:42;;;;;;;9.90;5.30;;;5.60;99.90;;;;;;5027537;28;20495;-79
2023/11/27 00:31:09;;;;;;;13.38;5.80;;;5.70;99.90;;;;;;4994077;28;20046;-64
2023/11/27 00:33:38;;;;;;;14.25;5.47;;;5.60;99.90;;;;;;5009408;28;20120;-79
2023/11/27 00:36:04;;;;;;;10.65;5.05;;;5.50;99.90;;;;;;5022805;28;20081;-65
2023/11/27 00:38:30;;;;;;;11.93;5.82;;;5.60;99.90;;;;;;5009270;28;20391;-65
2023/11/27 00:40:55;;;;;;;12.75;6.07;;;5.50;99.90;;;;;;5028244;28;20045;-78
2023/11/27 00:43:22;;;;;;;15.05;6.18;;;5.50;99.90;;;;;;4992957;28;20539;-69
2023/11/27 00:45:47;;;;;;;13.13;6.53;;;5.60;99.90;;;;;;5027464;28;20495;-82
2023/11/27 00:48:14;;;;;;;11.63;6.22;;;5.50;99.90;;;;;;5001394;28;20045;-64
2023/11/27 00:50:40;;;;;;;13.07;6.00;;;5.50;99.90;;;;;;5027038;28;20100;-65
2023/11/27 00:53:05;;;;;;;14.43;6.03;;;5.50;99.90;;;;;;5010237;28;20057;-77
2023/11/27 00:55:31;;;;;;;12.75;6.40;;;5.40;99.90;;;;;;5026752;28;20124;-78
2023/11/27 00:57:57;;;;;;;9.25;6.10;;;5.50;99.90;;;;;;5018371;28;20038;-64
2023/11/27 01:00:22;;;;;;;12.27;6.35;;;5.40;99.90;;;;;;5006694;28;20049;-86
2023/11/27 01:02:52;;;;;;;11.20;6.03;;;5.50;99.90;;;;;;5035543;28;20561;-72
2023/11/27 01:05:20;;;;;;;13.10;5.95;;;5.40;99.90;;;;;;5025147;28;20067;-73
2023/11/27 01:07:46;;;;;;;12.43;7.13;;;5.30;99.90;;;;;;5028423;28;20441;-64
2023/11/27 01:10:12;;;;;;;16.08;7.32;;;5.40;99.90;;;;;;5038618;28;20041;-80
2023/11/27 01:12:38;;;;;;;14.32;6.57;;;5.30;99.90;;;;;;5023848;28;20149;-64
2023/11/27 01:15:06;;;;;;;19.50;7.43;;;5.30;99.90;;;;;;5022471;28;20418;-64
2023/11/27 01:17:32;;;;;;;13.80;6.97;;;5.30;99.90;;;;;;5033556;28;20053;-67
2023/11/27 01:19:58;;;;;;;17.23;8.07;;;5.30;99.90;;;;;;5033256;28;20080;-80
2023/11/27 01:22:24;;;;;;;19.98;8.45;;;5.40;99.90;;;;;;5047301;28;20072;-64
2023/11/27 01:24:49;;;;;;;19.02;8.85;;;5.40;99.90;;;;;;5025517;28;20095;-65
2023/11/27 01:27:15;;;;;;;21.20;8.95;;;5.30;99.90;;;;;;5027864;28;20049;-64
2023/11/27 01:29:41;;;;;;;18.77;9.95;;;5.40;99.90;;;;;;5041377;28;20052;-64
2023/11/27 01:32:07;;;;;;;27.50;10.05;;;5.30;99.90;;;;;;5040115;28;20238;-64
2023/11/27 01:34:33;;;;;;;19.85;10.02;;;5.40;99.90;;;;;;5046157;28;20068;-64
2023/11/27 01:36:59;;;;;;;23.60;10.13;;;5.30;99.90;;;;;;5021096;28;20364;-77
2023/11/27 01:39:24;;;;;;;20.92;11.27;;;5.40;99.90;;;;;;5046716;28;20052;-64
2023/11/27 01:41:50;;;;;;;29.27;12.18;;;5.30;99.90;;;;;;5046787;28;20043;-79
2023/11/27 01:44:16;;;;;;;19.80;12.10;;;5.30;99.90;;;;;;5047297;28;20494;-64
2023/11/27 01:46:45;;;;;;;23.42;11.60;;;5.30;99.90;;;;;;5025163;28;20046;-65
2023/11/27 01:49:12;;;;;;;24.05;12.13;;;5.30;99.90;;;;;;5039677;28;20408;-83
2023/11/27 01:51:39;;;;;;;14.95;8.75;;;5.30;99.90;;;;;;5025963;28;20052;-83
2023/11/27 01:54:05;;;;;;;21.48;12.55;;;5.30;99.90;;;;;;5033347;28;20068;-64
2023/11/27 01:56:33;;;;;;;19.40;11.13;;;5.30;99.90;;;;;;5036329;28;20073;-84
2023/11/27 01:59:00;;;;;;;27.77;11.30;;;5.30;99.90;;;;;;5035254;28;20124;-64
2023/11/27 02:01:28;;;;;;;24.25;11.95;;;5.20;99.90;;;;;;5020346;28;20049;-64
2023/11/27 02:03:54;;;;;;;25.17;12.30;;;5.30;99.90;;;;;;5037056;28;20116;-83
2023/11/27 02:06:20;;;;;;;18.90;11.10;;;5.30;99.90;;;;;;5021904;28;20040;-76
2023/11/27 02:08:46;;;;;;;18.55;11.57;;;5.20;99.90;;;;;;5031948;28;20041;-79
2023/11/27 02:11:17;;;;;;;24.00;12.55;;;5.20;99.90;;;;;;5047368;28;20135;-64
2023/11/27 02:13:44;;;;;;;24.60;12.80;;;5.20;99.90;;;;;;5048516;28;20052;-64
2023/11/27 02:16:10;;;;;;;29.88;12.45;;;5.20;99.90;;;;;;5045318;28;20041;-74
2023/11/27 02:18:36;;;;;;;24.65;12.25;;;5.20;99.90;;;;;;5003486;28;20525;-85
2023/11/27 02:21:06;;;;;;;25.70;12.55;;;5.20;99.90;;;;;;5032439;28;20064;-64
2023/11/27 02:23:32;;;;;;;21.40;12.40;;;5.20;99.90;;;;;;5031110;28;20502;-64
2023/11/27 02:25:58;;;;;;;26.08;12.68;;;5.10;99.90;;;;;;5028823;28;20049;-84
2023/11/27 02:28:24;;;;;;;16.13;9.32;;;5.10;99.90;;;;;;5030402;28;20048;-64
2023/11/27 02:30:49;;;;;;;30.50;12.25;;;5.10;99.90;;;;;;5029147;28;20073;-80
2023/11/27 02:33:16;;;;;;;20.45;11.70;;;5.10;99.90;;;;;;5013007;28;20458;-66
2023/11/27 02:35:42;;;;;;;19.77;12.48;;;5.10;99.90;;;;;;5006633;28;20153;-64
2023/11/27 02:38:07;;;;;;;18.83;11.18;;;5.00;99.90;;;;;;5022532;28;20132;-64
2023/11/27 02:40:33;;;;;;;20.70;11.48;;;5.00;99.90;;;;;;5020775;28;20034;-64
2023/11/27 02:42:59;;;;;;;22.73;12.18;;;5.00;99.90;;;;;;5018227;28;20058;-77
2023/11/27 02:45:26;;;;;;;17.90;11.02;;;5.00;99.90;;;;;;5001659;28;20046;-80
2023/11/27 02:47:51;;;;;;;19.50;11.18;;;5.00;99.90;;;;;;5004656;28;20089;-85
2023/11/27 02:50:18;;;;;;;17.80;10.45;;;5.00;99.90;;;;;;5029280;28;20133;-81
2023/11/27 02:52:45;;;;;;;19.13;11.07;;;4.90;99.90;;;;;;5029842;28;20049;-80
2023/11/27 02:55:11;;;;;;;15.52;9.73;;;5.00;99.90;;;;;;5024394;28;20107;-64
2023/11/27 02:57:37;;;;;;;23.25;10.80;;;4.90;99.90;;;;;;5030713;28;20096;-64
2023/11/27 03:00:05;;;;;;;17.10;11.05;;;4.90;99.90;;;;;;5011090;28;20084;-80
2023/11/27 03:02:32;;;;;;;21.33;10.25;;;4.90;99.90;;;;;;5029567;28;20487;-65
2023/11/27 03:04:58;;;;;;;17.77;10.50;;;4.90;99.90;;;;;;5007371;28;20045;-64
2023/11/27 03:07:24;;;;;;;21.05;10.60;;;4.90;99.90;;;;;;5030025;28;20053;-84
2023/11/27 03:09:49;;;;;;;19.45;11.15;;;4.90;99.90;;;;;;5019493;28;20049;-68
2023/11/27 03:12:15;;;;;;;24.92;11.75;;;4.90;99.90;;;;;;5014961;28;20048;-65
2023/11/27 03:14:41;;;;;;;18.30;10.45;;;4.80;99.90;;;;;;5025804;28;20044;-81
2023/11/27 03:17:08;;;;;;;14.40;9.70;;;4.90;99.90;;;;;;5026437;28;20080;-66
2023/11/27 03:19:37;;;;;;;20.77;10.57;;;4.80;99.90;;;;;;5030705;28;20040;-64
2023/11/27 03:22:03;;;;;;;22.95;10.43;;;4.80;99.90;;;;;;5047771;28;20048;-72
2023/11/27 03:24:28;;;;;;;16.80;10.82;;;4.80;99.90;;;;;;5049767;28;20036;-84
2023/11/27 03:26:54;;;;;;;17.00;10.75;;;4.80;99.90;;;;;;5036770;28;20398;-81
2023/11/27 03:29:20;;;;;;;16.15;10.25;;;4.80;99.90;;;;;;5044471;28;20041;-65
2023/11/27 03:31:45;;;;;;;18.17;9.65;;;4.80;99.90;;;;;;5045817;28;20387;-64
2023/11/27 03:34:11;;;;;;;13.02;9.57;;;4.80;99.90;;;;;;5048370;28;20411;-64
2023/11/27 03:36:37;;;;;;;17.17;9.48;;;4.80;99.90;;;;;;5039205;28;20057;-86
2023/11/27 03:39:03;;;;;;;13.68;8.95;;;4.80;99.90;;;;;;5012554;28;20052;-64
2023/11/27 03:41:28;;;;;;;17.15;8.25;;;4.70;99.90;;;;;;5031552;28;20076;-64
2023/11/27 03:43:54;;;;;;;13.35;8.40;;;4.70;99.90;;;;;;5015985;28;20171;-83
2023/11/27 03:46:20;;;;;;;12.02;7.70;;;4.70;99.90;;;;;;5021747;28;20053;-64
2023/11/27 03:48:46;;;;;;;15.45;7.90;;;4.70;99.90;;;;;;5026426;28;20041;-73
2023/11/27 03:51:12;;;;;;;11.40;6.95;;;4.70;99.90;;;;;;5013535;28;20080;-70
2023/11/27 03:53:37;;;;;;;12.52;7.10;;;4.70;99.90;;;;;;5048218;28;20041;-87
2023/11/27 03:56:04;;;;;;;12.20;6.00;;;4.70;99.90;;;;;;5047939;28;20051;-63
2023/11/27 03:58:31;;;;;;;12.02;6.28;;;4.70;99.90;;;;;;5022414;28;20055;-77
2023/11/27 04:00:57;;;;;;;10.88;4.90;;;4.70;99.90;;;;;;5037627;28;20052;-64
2023/11/27 04:03:23;;;;;;;9.65;4.88;;;4.70;99.90;;;;;;5044179;28;20041;-65
2023/11/27 04:05:49;;;;;;;5.88;3.65;;;4.70;99.90;;;;;;5045427;28;20083;-64
2023/11/27 04:08:15;;;;;;;6.35;4.28;;;4.70;99.90;;;;;;5046827;28;20092;-66
2023/11/27 04:10:44;;;;;;;6.07;4.20;;;4.70;99.90;;;;;;5011824;28;20125;-64
2023/11/27 04:13:09;;;;;;;6.43;3.67;;;4.70;99.90;;;;;;5005956;28;20492;-64
2023/11/27 04:15:35;;;;;;;3.88;3.47;;;4.60;99.90;;;;;;5043129;28;20048;-84
2023/11/27 04:18:01;;;;;;;6.00;3.40;;;4.70;99.90;;;;;;5026797;28;20049;-70
2023/11/27 04:20:26;;;;;;;9.50;3.15;;;4.70;99.90;;;;;;5022763;28;20052;-81
2023/11/27 04:22:52;;;;;;;3.28;2.97;;;4.70;99.90;;;;;;5037141;28;20514;-64
2023/11/27 04:25:18;;;;;;;4.57;3.00;;;4.70;99.90;;;;;;5048554;28;20067;-83
2023/11/27 04:27:44;;;;;;;3.42;2.78;;;4.70;99.90;;;;;;5030314;28;20095;-64
2023/11/27 04:30:10;;;;;;;2.80;2.60;;;4.60;99.90;;;;;;5029746;28;20053;-64
2023/11/27 04:32:36;;;;;;;2.83;2.63;;;4.60;99.90;;;;;;5041448;28;20055;-64
2023/11/27 04:35:03;;;;;;;2.67;2.47;;;4.60;99.90;;;;;;5001520;28;20053;-68
2023/11/27 04:37:28;;;;;;;2.15;1.52;;;4.50;99.90;;;;;;5047505;28;20041;-64
2023/11/27 04:39:54;;;;;;;5.25;2.53;;;4.60;99.90;;;;;;5006596;28;20044;-64
2023/11/27 04:42:20;;;;;;;4.07;1.90;;;4.60;99.90;;;;;;5024961;28;20084;-85
2023/11/27 04:44:46;;;;;;;3.35;2.17;;;4.50;99.90;;;;;;5029631;28;20045;-70
2023/11/27 04:47:12;;;;;;;4.85;1.85;;;4.50;99.90;;;;;;5047122;28;20103;-65
2023/11/27 04:49:38;;;;;;;1.33;1.30;;;4.50;99.90;;;;;;5043332;28;20148;-68
2023/11/27 04:52:04;;;;;;;1.25;1.05;;;4.50;99.90;;;;;;5046626;28;20128;-65
2023/11/27 04:54:30;;;;;;;4.88;1.55;;;4.40;99.90;;;;;;5047975;28;20056;-84
2023/11/27 04:56:56;;;;;;;1.00;1.00;;;4.50;99.90;;;;;;5028279;28;20052;-83
2023/11/27 04:59:22;;;;;;;1.40;0.82;;;4.40;99.90;;;;;;5038353;28;20076;-65
2023/11/27 05:01:48;;;;;;;1.23;1.17;;;4.40;99.90;;;;;;5017959;28;20085;-71
2023/11/27 05:04:17;;;;;;;0.70;0.70;;;4.40;99.90;;;;;;5018407;28;20119;-65
2023/11/27 05:06:44;;;;;;;1.13;1.02;;;4.30;99.90;;;;;;5030231;28;20445;-85
2023/11/27 05:09:12;;;;;;;1.10;1.10;;;4.30;99.90;;;;;;5025283;28;20051;-65
2023/11/27 05:11:38;;;;;;;2.20;1.13;;;4.30;99.90;;;;;;5011079;28;20037;-75
2023/11/27 05:14:04;;;;;;;1.02;0.95;;;4.20;99.90;;;;;;5022659;28;20240;-65
2023/11/27 05:16:30;;;;;;;1.20;1.10;;;4.30;99.90;;;;;;5010158;28;20507;-78
2023/11/27 05:18:56;;;;;;;2.13;0.98;;;4.20;99.90;;;;;;5040492;28;20045;-65
2023/11/27 05:21:22;;;;;;;0.98;0.98;;;4.30;99.90;;;;;;5015193;28;20042;-76
2023/11/27 05:23:47;;;;;;;2.05;1.30;;;4.30;99.90;;;;;;5012707;28;20052;-65
2023/11/27 05:26:13;;;;;;;0.93;0.93;;;4.20;99.90;;;;;;5046757;28;20072;-66
2023/11/27 05:28:42;;;;;;;1.10;1.00;;;4.20;99.90;;;;;;5047038;28;20037;-78
2023/11/27 05:31:09;;;;;;;1.13;1.13;;;4.20;99.90;;;;;;5041481;28;20107;-84
2023/11/27 05:33:35;;;;;;;1.00;0.95;;;4.20;99.90;;;;;;5010120;28;20433;-75
2023/11/27 05:36:05;;;;;;;1.20;1.20;;;4.10;99.90;;;;;;5028103;28;20063;-79
2023/11/27 05:38:30;;;;;;;1.30;1.27;;;4.10;99.90;;;;;;5029290;28;20049;-77
2023/11/27 05:40:58;;;;;;;1.63;1.30;;;4.00;99.90;;;;;;5046735;28;20102;-66
2023/11/27 05:43:25;;;;;;;2.60;1.20;;;4.00;99.90;;;;;;5027608;28;20523;-66
2023/11/27 05:45:50;;;;;;;2.05;1.27;;;4.00;99.90;;;;;;5030368;28;20045;-66
2023/11/27 05:48:18;;;;;;;1.00;1.00;;;4.00;99.90;;;;;;5029849;28;20390;-78
2023/11/27 05:50:46;;;;;;;0.90;0.90;;;4.00;99.90;;;;;;5031709;28;20108;-66
2023/11/27 05:53:15;;;;;;;0.63;0.63;;;4.00;99.90;;;;;;5006193;28;20057;-67
2023/11/27 05:55:41;;;;;;;0.55;0.52;;;3.90;99.90;;;;;;5024523;28;20045;-65
2023/11/27 05:58:08;;;;;;;0.77;0.60;;;3.90;99.90;;;;;;5030846;28;20133;-67
2023/11/27 06:00:33;;;;;;;1.30;1.20;;;3.90;99.90;;;;;;5030365;28;20364;-71
2023/11/27 06:02:59;;;;;;;0.40;0.40;;;3.80;99.90;;;;;;5031340;28;20052;-84
2023/11/27 06:05:25;;;;;;;0.68;0.68;;;3.80;99.90;;;;;;5000819;28;20124;-66
2023/11/27 06:07:51;;;;;;;0.45;0.43;;;3.80;99.90;;;;;;5031604;28;20060;-66
2023/11/27 06:10:17;;;;;;;0.90;0.75;;;3.90;99.90;;;;;;5041782;28;20131;-88
2023/11/27 06:12:43;;;;;;;0.90;0.90;;;3.80;99.90;;;;;;5050781;28;20249;-81
2023/11/27 06:15:14;;;;;;;0.47;0.38;;;3.80;99.90;;;;;;5015549;28;20045;-66
2023/11/27 06:17:40;;;;;;;;;;;3.90;99.90;;;;;;5044714;28;20059;-65
2023/11/27 06:20:09;;;;;;;0.60;0.60;;;3.70;99.90;;;;;;5024045;28;20290;-82
2023/11/27 06:22:36;;;;;;;1.52;0.80;;;3.80;99.90;;;;;;5029221;28;20399;-65
2023/11/27 06:25:02;;;;;;;1.25;1.10;;;3.70;99.90;;;;;;5018034;28;20114;-65
2023/11/27 06:27:28;;;;;;;0.63;0.63;;;3.70;99.90;;;;;;5029174;28;20458;-65
2023/11/27 06:29:54;;;;;;;1.30;1.02;;;3.70;99.90;;;;;;5013042;28;20038;-66
2023/11/27 06:32:20;;;;;;;1.38;1.10;;;3.70;99.90;;;;;;5040703;28;20083;-79
2023/11/27 06:34:47;;;;;;;1.35;0.80;;;3.70;99.90;;;;;;5049748;28;20380;-66
2023/11/27 06:37:13;;;;;;;0.90;0.90;;;3.80;99.90;;;;;;5033343;28;20037;-66
2023/11/27 06:39:38;;;;;;;0.90;0.90;;;3.70;99.90;;;;;;5045158;28;20460;-65
2023/11/27 06:42:04;;;;;;;1.10;1.10;;;3.70;99.90;;;;;;5050780;28;20045;-82
2023/11/27 06:44:30;;;;;;;1.15;0.82;;;3.70;99.90;;;;;;5048356;28;20052;-65
2023/11/27 06:46:58;;;;;;;0.73;0.73;;;3.60;99.90;;;;;;5019321;28;20085;-66
2023/11/27 06:49:23;;;;;;;0.70;0.70;;;3.60;99.90;;;;;;5028801;28;20056;-66
2023/11/27 06:51:49;;;;;;;1.00;1.00;;;3.70;99.90;;;;;;5048460;28;20040;-66
2023/11/27 06:54:15;;;;;;;2.03;1.20;;;3.70;99.90;;;;;;5049952;28;20053;-66
2023/11/27 06:56:41;;;;;;;0.75;0.75;;;3.70;99.90;;;;;;5048565;28;20102;-82
2023/11/27 06:59:07;;;;;;;1.60;1.50;;;3.70;99.90;;;;;;5043246;28;20496;-75
2023/11/27 07:01:33;;;;;;;2.45;1.08;;;3.60;99.90;;;;;;5033504;28;20053;-66
2023/11/27 07:04:00;;;;;;;0.90;0.90;;;3.60;99.90;;;;;;5046441;28;20041;-67
2023/11/27 07:06:26;;;;;;;0.50;0.50;;;3.60;99.90;;;;;;5028704;28;20041;-87
2023/11/27 07:08:52;;;;;;;1.13;1.10;;;3.50;99.90;;;;;;5021755;28;20057;-65
2023/11/27 07:11:17;;;;;;;0.90;0.90;;;3.60;99.90;;;;;;5025820;28;20068;-84
2023/11/27 07:13:44;;;;;;;3.60;1.40;;;3.50;99.90;;;;;;5039626;28;20064;-66
2023/11/27 07:16:10;;;;;;;1.05;1.05;;;3.50;99.90;;;;;;5031108;28;20049;-88
2023/11/27 07:18:36;;;;;;;0.80;0.80;;;3.60;99.90;;;;;;5038956;28;20045;-66
2023/11/27 07:21:01;;;;;;;0.80;0.80;;;3.50;99.90;;;;;;5021826;28;20042;-85
2023/11/27 07:23:28;;;;;;;1.55;1.45;;;3.50;99.90;;;;;;5048413;28;20395;-88
2023/11/27 07:25:54;;;;;;;1.02;1.02;;;3.60;99.90;;;;;;5006043;28;20038;-85
2023/11/27 07:28:19;;;;;;;0.73;0.73;;;3.60;99.90;;;;;;5048458;28;20041;-66
2023/11/27 07:30:48;;;;;;;1.10;1.00;;;3.50;99.90;;;;;;5030873;28;20392;-83
2023/11/27 07:33:14;;;;;;;0.93;0.85;;;3.50;99.90;;;;;;5029267;28;20457;-65
2023/11/27 07:35:41;;;;;;;0.77;0.77;;;3.50;99.90;;;;;;5039470;28;20048;-71
2023/11/27 07:38:07;;;;;;;1.60;1.00;;;3.60;99.90;;;;;;5049830;28;20041;-85
2023/11/27 07:40:34;;;;;;;1.08;1.00;;;3.60;99.90;;;;;;5048383;28;20088;-66
2023/11/27 07:43:00;;;;;;;1.00;0.98;;;3.60;99.90;;;;;;5008490;28;20089;-66
2023/11/27 07:45:26;;;;;;;0.60;0.60;;;3.50;99.90;;;;;;5047550;28;20463;-68
2023/11/27 07:47:52;;;;;;;0.55;0.55;;;3.50;99.90;;;;;;5049218;28;20120;-81
2023/11/27 07:50:18;;;;;;;0.60;0.60;;;3.50;99.90;;;;;;5048765;28;20049;-65
2023/11/27 07:52:43;;;;;;;0.90;0.85;;;3.50;99.90;;;;;;5035094;28;20034;-66
2023/11/27 07:55:12;;;;;;;0.70;0.60;;;3.50;99.90;;;;;;5026778;28;20044;-67
2023/11/27 07:57:38;;;;;;;0.50;0.50;;;3.50;99.90;;;;;;5047150;28;20075;-67
2023/11/27 08:00:11;;;;;;;0.60;0.60;;;3.40;99.90;;;;;;5047130;28;20493;-82
2023/11/27 08:02:38;;;;;;;0.70;0.70;;;3.40;99.90;;;;;;5003701;28;20472;-66
2023/11/27 08:05:06;;;;;;;0.80;0.80;;;3.40;99.90;;;;;;5007139;28;20050;-89
2023/11/27 08:07:33;;;;;;;0.50;0.50;;;3.40;99.90;;;;;;5027618;28;20046;-84
2023/11/27 08:09:59;;;;;;;0.60;0.60;;;3.20;99.90;;;;;;5025566;28;20504;-66
2023/11/27 08:12:24;;;;;;;0.70;0.70;;;3.20;99.90;;;;;;5032039;28;20045;-66
2023/11/27 08:14:50;;;;;;;0.80;0.80;;;3.10;99.90;;;;;;5025488;28;20078;-66
2023/11/27 08:17:16;;;;;;;0.80;0.80;;;3.20;99.90;;;;;;5020540;28;20147;-81
2023/11/27 08:19:41;;;;;;;1.33;0.70;;;3.20;99.90;;;;;;5001182;28;20046;-88
2023/11/27 08:22:07;;;;;;;1.98;0.65;;;3.20;99.90;;;;;;5028030;28;20090;-66
2023/11/27 08:24:36;;;;;;;3.00;1.05;;;3.20;99.90;;;;;;5014617;28;20393;-66
2023/11/27 08:27:04;;;;;;;1.02;0.65;;;3.20;99.90;;;;;;5021360;28;20117;-66
2023/11/27 08:29:30;;;;;;;0.93;0.93;;;3.10;99.90;;;;;;5029610;28;20044;-66
2023/11/27 08:32:00;;;;;;;0.60;0.60;;;3.10;99.90;;;;;;5027554;28;20129;-66
2023/11/27 08:34:29;;;;;;;2.47;0.67;;;3.10;99.90;;;;;;5028962;28;20094;-87
2023/11/27 08:36:59;;;;;;;0.80;0.80;;;3.10;99.90;;;;;;5039926;28;20114;-84
2023/11/27 08:39:25;;;;;;;1.02;1.00;;;3.00;99.90;;;;;;5035363;28;20069;-66
2023/11/27 08:41:51;;;;;;;0.90;0.90;;;3.10;99.90;;;;;;5016250;28;20045;-66
2023/11/27 08:44:18;;;;;;;0.60;0.60;;;3.10;99.90;;;;;;5026142;28;20060;-66
2023/11/27 08:46:46;;;;;;;0.88;0.88;;;2.90;99.90;;;;;;5028120;28;20041;-85
2023/11/27 08:49:12;;;;;;;0.80;0.80;;;2.90;99.90;;;;;;5026559;28;20500;-66
2023/11/27 08:51:42;;;;;;;1.00;1.00;;;2.90;99.90;;;;;;5025099;28;20432;-66
2023/11/27 08:54:08;;;;;;;0.60;0.60;;;2.90;99.90;;;;;;5016675;28;20754;-85
2023/11/27 08:56:34;;;;;;;0.80;0.80;;;2.90;99.90;;;;;;5028235;28;20169;-85
2023/11/27 08:59:01;;;;;;;0.88;0.88;;;2.80;99.90;;;;;;5027051;28;20420;-66
2023/11/27 09:01:27;;;;;;;1.13;1.02;;;2.80;99.90;;;;;;5026912;28;20048;-79
2023/11/27 09:03:53;;;;;;;1.00;1.00;;;2.70;99.90;;;;;;5027027;28;20039;-81
2023/11/27 09:06:19;;;;;;;2.85;0.90;;;2.90;99.90;;;;;;5026550;28;20484;-66
2023/11/27 09:08:45;;;;;;;0.90;0.90;;;2.80;99.90;;;;;;5042677;28;20483;-75
2023/11/27 09:11:11;;;;;;;5.15;1.40;;;2.90;99.90;;;;;;5018733;28;20506;-66
2023/11/27 09:13:38;;;;;;;1.30;1.25;;;2.80;99.90;;;;;;5040627;28;20140;-66
2023/11/27 09:16:04;;;;;;;1.00;1.00;;;2.70;99.90;;;;;;5028207;28;20064;-66
2023/11/27 09:18:31;;;;;;;1.17;1.17;;;2.80;99.90;;;;;;5027296;28;20510;-66
2023/11/27 09:20:57;;;;;;;0.95;0.95;;;2.80;99.90;;;;;;5026959;28;20041;-66
2023/11/27 09:23:23;;;;;;;1.35;1.35;;;2.80;99.90;;;;;;5024713;28;20053;-84
2023/11/27 09:25:48;;;;;;;1.40;1.40;;;2.90;99.90;;;;;;5027435;28;20136;-66
2023/11/27 09:28:14;;;;;;;1.08;1.08;;;2.90;99.90;;;;;;5040463;28;20041;-66
2023/11/27 09:30:40;;;;;;;1.95;1.85;;;2.80;99.90;;;;;;5029124;28;20048;-66
2023/11/27 09:33:06;;;;;;;1.50;1.40;;;2.90;99.90;;;;;;5039498;28;20048;-89
2023/11/27 09:35:32;;;;;;;1.52;1.42;;;2.80;99.90;;;;;;5017883;28;20037;-66
2023/11/27 09:37:57;;;;;;;1.40;1.40;;;2.80;99.90;;;;;;5026959;28;20045;-66
2023/11/27 09:40:23;;;;;;;2.05;1.90;;;2.90;99.90;;;;;;5039796;28;20387;-66
2023/11/27 09:42:49;;;;;;;1.85;1.75;;;2.90;99.90;;;;;;5042320;28;20202;-73
2023/11/27 09:45:16;;;;;;;1.13;1.13;;;2.80;99.90;;;;;;5033447;28;20473;-66
2023/11/27 09:47:45;;;;;;;1.80;1.70;;;2.80;99.90;;;;;;5040911;28;20056;-82
2023/11/27 09:50:12;;;;;;;1.27;1.27;;;2.70;99.90;;;;;;5022575;28;20494;-65
2023/11/27 09:53:08;;;;;;;1.95;1.85;;;2.80;99.90;;;;;;5026156;28;20041;-87
2023/11/27 09:55:38;;;;;;;1.52;1.42;;;2.70;99.90;;;;;;5016954;28;20037;-84
2023/11/27 09:58:10;;;;;;;1.70;1.60;;;2.70;99.90;;;;;;5025212;28;20073;-72
2023/11/27 10:00:37;;;;;;;1.40;1.30;;;2.80;99.90;;;;;;5023407;28;20124;-65
2023/11/27 10:03:03;;;;;;;1.48;1.48;;;2.70;99.90;;;;;;5016257;28;20053;-65
2023/11/27 10:05:29;;;;;;;1.92;1.83;;;2.80;99.90;;;;;;5007529;28;20042;-80
2023/11/27 10:07:57;;;;;;;1.67;1.58;;;2.80;99.90;;;;;;5011014;28;20049;-82
2023/11/27 10:10:26;;;;;;;2.03;1.85;;;2.70;99.90;;;;;;5041356;28;20059;-65
2023/11/27 10:12:57;;;;;;;1.85;1.75;;;2.80;99.90;;;;;;5024945;28;20063;-65
2023/11/27 10:15:26;;;;;;;2.08;1.88;;;2.80;99.90;;;;;;5027144;28;20088;-65
2023/11/27 10:17:53;;;;;;;1.90;1.80;;;2.80;99.90;;;;;;5007251;28;20057;-66
2023/11/27 10:20:23;;;;;;;2.10;2.00;;;2.70;99.90;;;;;;5008011;28;20088;-78
2023/11/27 10:22:49;;;;;;;1.95;1.73;;;2.80;99.90;;;;;;5025807;28;20056;-86
2023/11/27 10:25:16;;;;;;;1.67;1.67;;;2.80;99.90;;;;;;5020818;28;20050;-65
2023/11/27 10:27:43;;;;;;;1.80;1.70;;;2.90;99.90;;;;;;5025705;28;20577;-66
2023/11/27 10:30:25;;;;;;;1.83;1.73;;;2.80;99.90;;;;;;5026710;28;20046;-65
2023/11/27 10:32:54;;;;;;;1.77;1.67;;;2.80;99.90;;;;;;5028634;28;20049;-65
2023/11/27 10:35:24;;;;;;;2.22;1.80;;;2.70;99.90;;;;;;5013260;28;20065;-78
2023/11/27 10:37:50;;;;;;;;;;;2.80;99.90;;;;;;4996882;28;20048;-66
2023/11/27 10:40:20;;;;;;;2.33;2.13;;;2.80;99.90;;;;;;5025176;28;19952;-74
2023/11/27 10:42:48;;;;;;;2.28;1.80;;;2.80;99.90;;;;;;5011943;28;20103;-84
2023/11/27 10:45:23;;;;;;;2.00;1.90;;;2.80;99.90;;;;;;5032516;23;20145;-65
2023/11/27 10:47:51;;;;;;;3.90;2.00;;;2.90;99.90;;;;;;5021147;28;20054;-65
2023/11/27 10:50:25;;;;;;;1.98;1.88;;;2.90;99.90;;;;;;5031352;28;20476;-65
2023/11/27 10:52:52;;;;;;;1.98;1.88;;;3.00;99.90;;;;;;5028187;28;20049;-65
2023/11/27 10:55:19;;;;;;;2.13;2.00;;;2.90;99.90;;;;;;5003805;28;20077;-65
2023/11/27 11:01:52;;;;;;;2.17;2.08;;;3.00;99.90;;;;;;5034038;23;20095;-65
2023/11/27 11:04:49;;;;;;;2.40;2.30;;;3.10;99.90;;;;;;5020783;28;20356;-65
2023/11/27 11:07:19;;;;;;;2.47;2.28;;;3.10;99.90;;;;;;5011408;28;20153;-82
2023/11/27 11:09:49;;;;;;;2.47;2.35;;;3.10;99.90;;;;;;5017151;28;20459;-87
2023/11/27 11:12:24;;;;;;;3.70;2.28;;;3.10;99.90;;;;;;5024858;28;20051;-65
2023/11/27 11:14:52;;;;;;;1.92;1.80;;;3.10;99.90;;;;;;5031160;28;20073;-65
2023/11/27 11:17:51;;;;;;;1.90;1.80;;;3.10;99.90;;;;;;5016840;28;20491;-65
2023/11/27 11:20:41;;;;;;;1.83;1.77;;;3.10;99.90;;;;;;5027336;28;20607;-65
2023/11/27 11:23:11;;;;;;;2.33;2.22;;;3.20;99.90;;;;;;5029743;28;20132;-65
2023/11/27 11:26:05;;;;;;;3.92;2.20;;;3.10;99.90;;;;;;5009096;28;20069;-65
2023/11/27 11:28:49;;;;;;;1.80;1.70;;;3.10;99.90;;;;;;5023868;28;20045;-84
2023/11/27 11:31:33;;;;;;;3.40;1.70;;;3.20;99.90;;;;;;5037023;28;20062;-65
2023/11/27 11:34:00;;;;;;;1.48;1.48;;;3.10;99.90;;;;;;5021258;28;20052;-83
2023/11/27 11:36:34;;;;;;;1.75;1.65;;;3.20;99.90;;;;;;5015299;28;20116;-65
2023/11/27 11:39:19;;;;;;;1.88;1.77;;;3.20;99.90;;;;;;5019339;28;20562;-65
2023/11/27 11:46:30;;;;;;;1.90;1.80;;;3.30;99.90;;;;;;5009495;28;20052;-69
2023/11/27 11:49:48;;;;;;;1.48;1.38;;;3.20;99.90;;;;;;5023370;28;20084;-73
2023/11/27 12:00:03;;;;;;;1.77;1.60;;;3.30;99.90;;;;;;5043190;28;20060;-69
2023/11/27 12:06:45;;;;;;;1.38;1.20;;;3.40;99.90;;;;;;5031089;23;20091;-65
2023/11/27 12:25:57;;;;;;;1.73;1.45;;;3.40;99.90;;;;;;4969530;23;20115;-64
2023/11/27 12:28:23;;;;;;;1.42;1.38;;;3.40;99.90;;;;;;5008469;28;20053;-72
2023/11/27 12:30:49;;;;;;;1.25;1.23;;;3.40;99.90;;;;;;5000649;28;20042;-65
2023/11/27 12:33:17;;;;;;;1.23;1.23;;;3.40;99.90;;;;;;5009011;28;20057;-84
2023/11/27 12:35:49;;;;;;;2.05;1.58;;;3.40;99.90;;;;;;4989205;28;20146;-86
2023/11/27 12:38:17;;;;;;;1.40;1.30;;;3.40;99.90;;;;;;5003619;28;20049;-68
2023/11/27 12:40:47;;;;;;;1.65;1.55;;;3.40;99.90;;;;;;5005383;28;20416;-82
2023/11/27 12:47:21;;;;;;;3.25;1.40;;;3.40;99.90;;;;;;5031830;28;20071;-64
2023/11/27 12:53:13;;;;;;;1.70;1.60;;;3.50;99.90;;;;;;5018110;28;20035;-64
2023/11/27 12:55:48;;;;;;;1.52;1.42;;;3.50;99.90;;;;;;5021227;23;20135;-64
2023/11/27 12:58:21;;;;;;;1.60;1.50;;;3.50;99.90;;;;;;4996868;28;20410;-64
2023/11/27 13:00:48;;;;;;;1.30;1.20;;;3.50;99.90;;;;;;4993320;28;20972;-64
2023/11/27 13:03:19;;;;;;;1.00;1.00;;;3.40;99.90;;;;;;4993325;28;20117;-85
2023/11/27 13:05:51;;;;;;;0.65;0.65;;;3.40;99.90;;;;;;5002741;28;20110;-67
2023/11/27 13:08:23;;;;;;;0.80;0.80;;;3.40;99.90;;;;;;4987816;28;20049;-64
2023/11/27 13:10:54;;;;;;;1.10;0.80;;;3.40;99.90;;;;;;5014466;28;20041;-64
2023/11/27 13:13:21;;;;;;;1.65;0.90;;;3.40;99.90;;;;;;4990263;28;20054;-64
2023/11/27 13:15:49;;;;;;;3.35;1.40;;;3.40;99.90;;;;;;4998717;28;20042;-64
2023/11/27 13:18:15;;;;;;;1.35;1.20;;;3.40;99.90;;;;;;5004837;28;20497;-64
2023/11/27 13:21:08;;;;;;;1.10;1.10;;;3.40;99.90;;;;;;4990458;28;20125;-64
2023/11/27 13:23:37;;;;;;;1.05;1.00;;;3.40;99.90;;;;;;5037934;23;20065;-77
2023/11/27 13:26:35;;;;;;;1.20;1.20;;;3.40;99.90;;;;;;5023654;28;20183;-73
2023/11/27 13:29:07;;;;;;;1.15;1.05;;;3.40;99.90;;;;;;5018209;28;20058;-65
2023/11/27 13:32:03;;;;;;;1.15;1.15;;;3.30;99.90;;;;;;5038274;28;20050;-73
2023/11/27 13:35:08;;;;;;;1.10;1.10;;;3.30;99.90;;;;;;5020763;28;20492;-72
2023/11/27 13:41:58;;;;;;;0.43;0.43;;;3.20;99.90;;;;;;5050653;28;20040;-68
2023/11/27 13:54:22;;;;;;;1.75;1.48;;;3.30;99.90;;;;;;5034926;23;20119;-74
2023/11/27 13:56:58;;;;;;;1.02;0.93;;;3.40;99.90;;;;;;5025785;28;20545;-69